Time;durP1;ratioP1;P1;durP2;ratioP2;P2;SDS_P1;SDS_P2;PMS_P1;PMS_P2;Temp;Humidity;BMP_temperature;BMP_pressure;BME280_temperature;BME280_humidity;BME280_pressure;Samples;Min_cycle;Max_cycle;Signal;HPM_P1;HPM_P2
2022/06/01 00:00:56;;;;;;;19.40;16.77;;;10.90;99.90;;;;;;4850838;29;20208;-91
2022/06/01 00:03:23;;;;;;;17.55;15.68;;;9.70;99.90;;;;;;4866613;29;20163;-91
2022/06/01 00:05:53;;;;;;;18.80;16.02;;;10.80;99.90;;;;;;4866072;29;20131;-91
2022/06/01 00:08:22;;;;;;;19.30;15.55;;;10.90;99.90;;;;;;4867010;29;20052;-91
2022/06/01 00:10:48;;;;;;;18.17;15.82;;;10.90;99.90;;;;;;4866108;29;20055;-91
2022/06/01 00:13:14;;;;;;;18.40;16.50;;;10.80;99.90;;;;;;4865853;29;20446;-91
2022/06/01 00:15:49;;;;;;;17.95;16.05;;;11.00;99.90;;;;;;4865848;29;20166;-92
2022/06/01 00:18:15;;;;;;;19.27;16.45;;;10.90;99.90;;;;;;4853186;29;20051;-92
2022/06/01 00:20:48;;;;;;;20.30;16.00;;;10.80;99.90;;;;;;4865781;29;20064;-89
2022/06/01 00:23:27;;;;;;;;;;;;;;;;;;;;;
2022/06/01 00:26:02;;;;;;;18.00;16.10;;;10.80;99.90;;;;;;4880929;29;20044;-92
2022/06/01 00:28:28;;;;;;;21.98;15.98;;;10.80;99.90;;;;;;4869778;29;20504;-93
2022/06/01 00:30:54;;;;;;;21.48;16.65;;;10.90;99.90;;;;;;4878111;29;20048;-92
2022/06/01 00:33:19;;;;;;;19.50;16.05;;;10.80;99.90;;;;;;4875469;29;20079;-92
2022/06/01 00:35:45;;;;;;;18.23;16.42;;;10.90;99.90;;;;;;4872878;29;20053;-92
2022/06/01 00:38:14;;;;;;;19.73;16.40;;;10.80;99.90;;;;;;4871406;29;20044;-91
2022/06/01 00:40:39;;;;;;;20.15;16.77;;;11.10;99.90;;;;;;4873120;29;20270;-91
2022/06/01 00:43:23;;;;;;;18.50;16.15;;;10.90;99.90;;;;;;4870192;29;20060;-91
2022/06/01 00:45:52;;;;;;;18.20;16.20;;;11.60;99.90;;;;;;4869250;29;20060;-92
2022/06/01 00:48:24;;;;;;;17.98;16.05;;;9.70;99.90;;;;;;4866803;29;20052;-92
2022/06/01 00:50:59;;;;;;;19.48;15.23;;;10.90;99.90;;;;;;4852889;29;20846;-92
2022/06/01 00:53:36;;;;;;;17.23;15.43;;;10.90;99.90;;;;;;4851756;29;20093;-92
2022/06/01 00:56:06;;;;;;;17.58;15.70;;;10.90;99.90;;;;;;4868336;29;20052;-92
2022/06/01 00:58:36;;;;;;;20.08;15.43;;;10.90;99.90;;;;;;4865153;29;20409;-92
2022/06/01 01:01:04;;;;;;;17.55;15.82;;;10.80;99.90;;;;;;4850300;29;20079;-92
2022/06/01 01:03:35;;;;;;;19.02;16.17;;;11.00;99.90;;;;;;4866320;29;20057;-91
2022/06/01 01:06:12;;;;;;;20.02;15.90;;;10.90;99.90;;;;;;4852786;29;20057;-92
2022/06/01 01:08:38;;;;;;;18.13;16.23;;;11.00;99.90;;;;;;4865373;29;20096;-92
2022/06/01 01:11:08;;;;;;;18.70;16.80;;;11.00;99.90;;;;;;4865469;29;20059;-92
2022/06/01 01:13:37;;;;;;;18.67;15.95;;;10.90;99.90;;;;;;4865140;29;20138;-92
2022/06/01 01:16:05;;;;;;;18.65;16.73;;;10.90;99.90;;;;;;4865331;29;20117;-93
2022/06/01 01:18:39;;;;;;;18.92;16.92;;;10.90;99.90;;;;;;4865362;29;20132;-95
2022/06/01 01:21:16;;;;;;;20.38;18.27;;;10.90;99.90;;;;;;4866481;29;20099;-94
2022/06/01 01:23:56;;;;;;;20.80;18.20;;;11.00;99.90;;;;;;4868354;29;20052;-93
2022/06/01 01:26:22;;;;;;;20.35;18.25;;;11.20;99.90;;;;;;4866786;29;20087;-94
2022/06/01 01:28:53;;;;;;;20.50;17.92;;;11.10;99.90;;;;;;4864842;29;20058;-92
2022/06/01 01:31:26;;;;;;;22.63;18.48;;;10.90;99.90;;;;;;4865914;29;20056;-92
2022/06/01 01:33:53;;;;;;;21.58;19.35;;;10.90;99.90;;;;;;4864746;29;20085;-92
2022/06/01 01:36:23;;;;;;;22.27;19.20;;;11.10;99.90;;;;;;4864580;29;20056;-89
2022/06/01 01:39:12;;;;;;;22.85;19.60;;;11.30;99.90;;;;;;4864073;29;20097;-91
2022/06/01 01:41:48;;;;;;;22.88;18.90;;;10.90;99.90;;;;;;4886568;29;20071;-92
2022/06/01 01:44:25;;;;;;;20.23;18.23;;;10.90;99.90;;;;;;4868822;29;20505;-92
2022/06/01 01:46:51;;;;;;;21.45;19.15;;;10.90;99.90;;;;;;4870268;29;20048;-92
2022/06/01 01:49:30;;;;;;;20.38;18.23;;;11.00;99.90;;;;;;4870076;29;20107;-93
2022/06/01 01:52:00;;;;;;;21.13;18.92;;;10.80;99.90;;;;;;4870613;29;20044;-93
2022/06/01 01:54:41;;;;;;;22.33;20.08;;;11.10;99.90;;;;;;4865557;29;20128;-92
2022/06/01 01:57:18;;;;;;;21.75;18.13;;;10.80;99.90;;;;;;4880449;29;20499;-93
2022/06/01 02:00:05;;;;;;;25.77;19.73;;;10.80;99.90;;;;;;4895593;29;20092;-92
2022/06/01 02:02:47;;;;;;;22.73;19.05;;;10.80;99.90;;;;;;4864557;29;20485;-93
2022/06/01 02:08:12;;;;;;;21.63;19.33;;;10.70;99.90;;;;;;4898613;29;20049;-92
2022/06/01 02:13:22;;;;;;;;;;;10.80;99.90;;;;;;4869481;29;20044;-93
2022/06/01 02:15:57;;;;;;;21.83;19.50;;;10.50;99.90;;;;;;4879739;29;19923;-94
2022/06/01 02:18:28;;;;;;;21.45;19.20;;;10.70;99.90;;;;;;4865769;29;20108;-94
2022/06/01 02:21:03;;;;;;;22.65;20.35;;;10.60;99.90;;;;;;4864484;29;20056;-93
2022/06/01 02:23:35;;;;;;;24.13;20.35;;;10.60;99.90;;;;;;4866238;29;20091;-95
2022/06/01 02:26:09;;;;;;;23.45;20.95;;;10.50;99.90;;;;;;4866776;29;20440;-94
2022/06/01 02:28:43;;;;;;;22.88;20.33;;;10.80;99.90;;;;;;4865521;29;20076;-94
2022/06/01 02:31:17;;;;;;;23.08;20.38;;;10.70;99.90;;;;;;4865459;29;20136;-94
2022/06/01 02:33:52;;;;;;;23.70;20.50;;;10.60;99.90;;;;;;4866712;29;20098;-93
2022/06/01 02:36:30;;;;;;;;;;;;;;;;;;;;;
2022/06/01 02:39:07;;;;;;;21.45;19.10;;;10.50;99.90;;;;;;4886794;29;20044;-93
2022/06/01 02:44:29;;;;;;;22.95;20.65;;;10.50;99.90;;;;;;4872556;29;20500;-95
2022/06/01 02:47:01;;;;;;;24.00;20.65;;;10.60;99.90;;;;;;4866714;29;20482;-95
2022/06/01 02:49:41;;;;;;;22.75;20.33;;;10.60;99.90;;;;;;4867073;29;20044;-94
2022/06/01 02:52:07;;;;;;;23.52;21.13;;;10.50;99.90;;;;;;4867254;29;20410;-94
2022/06/01 02:54:38;;;;;;;24.25;21.40;;;10.50;99.90;;;;;;4864852;29;20053;-92
2022/06/01 02:57:06;;;;;;;24.60;22.02;;;11.70;99.90;;;;;;4850716;29;20059;-93
2022/06/01 02:59:45;;;;;;;23.17;20.65;;;10.70;99.90;;;;;;4869588;29;20063;-94
2022/06/01 03:02:14;;;;;;;23.83;21.33;;;10.60;99.90;;;;;;4854306;29;20056;-94
2022/06/01 03:04:45;;;;;;;25.02;22.17;;;10.60;99.90;;;;;;4868036;29;20325;-93
2022/06/01 03:07:21;;;;;;;23.67;21.10;;;10.60;99.90;;;;;;4883857;29;20053;-93
2022/06/01 03:09:57;;;;;;;24.88;22.38;;;9.60;99.90;;;;;;4854914;29;20052;-93
2022/06/01 03:12:31;;;;;;;25.13;22.73;;;10.60;99.90;;;;;;4853527;29;20055;-93
2022/06/01 03:15:07;;;;;;;24.80;22.13;;;10.60;99.90;;;;;;4868288;29;20096;-93
2022/06/01 03:17:38;;;;;;;26.27;22.83;;;10.60;99.90;;;;;;4868035;29;20048;-93
2022/06/01 03:22:56;;;;;;;24.85;22.17;;;10.50;99.90;;;;;;4869372;29;20068;-93
2022/06/01 03:25:27;;;;;;;26.10;23.23;;;9.80;99.90;;;;;;4869070;29;20067;-94
2022/06/01 03:28:01;;;;;;;27.45;24.65;;;10.70;99.90;;;;;;4854232;29;20097;-93
2022/06/01 03:30:30;;;;;;;27.83;24.80;;;10.30;99.90;;;;;;4869663;29;20064;-94
2022/06/01 03:33:05;;;;;;;28.70;25.55;;;10.10;99.90;;;;;;4868200;29;20079;-94
2022/06/01 03:35:34;;;;;;;27.92;25.13;;;10.90;99.90;;;;;;4869251;29;20505;-93
2022/06/01 03:38:17;;;;;;;26.75;23.98;;;10.60;99.90;;;;;;4866530;29;20052;-94
2022/06/01 03:40:43;;;;;;;27.92;24.92;;;10.80;99.90;;;;;;4869132;29;20056;-93
2022/06/01 03:43:21;;;;;;;29.98;25.00;;;10.90;99.90;;;;;;4866443;29;20067;-94
2022/06/01 03:46:01;;;;;;;28.45;25.38;;;10.70;99.90;;;;;;4869945;29;20143;-95
2022/06/01 03:48:40;;;;;;;27.58;24.67;;;10.70;99.90;;;;;;4873709;29;20060;-94
2022/06/01 03:51:09;;;;;;;27.05;24.25;;;9.70;99.90;;;;;;4853427;29;20135;-94
2022/06/01 03:53:37;;;;;;;28.15;25.23;;;10.60;99.90;;;;;;4852356;29;20056;-93
2022/06/01 03:56:08;;;;;;;29.33;26.40;;;10.80;99.90;;;;;;4851676;29;20409;-96
2022/06/01 03:58:34;;;;;;;28.02;25.05;;;10.70;99.90;;;;;;4867398;29;20079;-93
2022/06/01 04:01:07;;;;;;;29.48;26.27;;;10.70;99.90;;;;;;4850930;29;20139;-92
2022/06/01 04:03:35;;;;;;;29.87;26.83;;;11.00;99.90;;;;;;4852675;29;20139;-93
2022/06/01 04:06:04;;;;;;;29.48;26.38;;;10.70;99.90;;;;;;4853055;29;20299;-93
2022/06/01 04:08:32;;;;;;;28.98;25.98;;;10.90;99.90;;;;;;4850692;29;20056;-94
2022/06/01 04:11:00;;;;;;;30.77;27.55;;;10.70;99.90;;;;;;4850902;29;20056;-94
2022/06/01 04:13:32;;;;;;;29.88;26.67;;;11.10;99.90;;;;;;4850803;29;20509;-94
2022/06/01 04:15:58;;;;;;;30.30;27.23;;;10.90;99.90;;;;;;4868088;29;20108;-94
2022/06/01 04:18:34;;;;;;;;;;;;;;;;;;;;;
2022/06/01 04:21:10;;;;;;;31.67;27.75;;;11.30;99.90;;;;;;4870608;29;20049;-94
2022/06/01 04:23:45;;;;;;;31.63;28.23;;;11.00;99.90;;;;;;4868802;29;20435;-94
2022/06/01 04:26:18;;;;;;;31.30;27.50;;;10.90;99.90;;;;;;4866932;29;20108;-93
2022/06/01 04:28:52;;;;;;;29.33;26.33;;;12.00;99.90;;;;;;4851418;29;20052;-93
2022/06/01 04:31:21;;;;;;;30.48;27.20;;;10.80;99.90;;;;;;4852207;29;20052;-94
2022/06/01 04:33:49;;;;;;;30.00;26.92;;;10.90;99.90;;;;;;4866880;29;20080;-93
2022/06/01 04:36:15;;;;;;;29.85;26.85;;;10.90;99.90;;;;;;4850957;29;20099;-93
2022/06/01 04:38:43;;;;;;;29.15;26.00;;;11.10;99.90;;;;;;4852218;29;20079;-92
2022/06/01 04:41:19;;;;;;;31.08;27.85;;;11.10;99.90;;;;;;4867703;29;20155;-94
2022/06/01 04:43:47;;;;;;;29.83;26.70;;;11.10;99.90;;;;;;4886094;29;20108;-94
2022/06/01 04:46:13;;;;;;;32.15;28.75;;;10.70;99.90;;;;;;4887704;29;20142;-93
2022/06/01 04:48:39;;;;;;;31.27;27.83;;;11.30;99.90;;;;;;4864461;29;20060;-92
2022/06/01 04:51:05;;;;;;;31.35;28.13;;;11.10;99.90;;;;;;4851403;29;20041;-93
2022/06/01 04:53:34;;;;;;;29.33;26.17;;;11.90;99.90;;;;;;4851069;29;20089;-92
2022/06/01 04:56:05;;;;;;;29.38;26.25;;;12.70;99.90;;;;;;4878311;29;20051;-93
2022/06/01 04:58:34;;;;;;;29.90;26.77;;;10.70;99.90;;;;;;4885729;29;20055;-93
2022/06/01 05:01:02;;;;;;;32.05;28.75;;;11.20;99.90;;;;;;4881956;29;20048;-93
2022/06/01 05:03:28;;;;;;;29.88;26.90;;;11.30;99.90;;;;;;4854095;29;20060;-94
2022/06/01 05:05:56;;;;;;;29.25;26.17;;;11.40;99.90;;;;;;4849740;29;20401;-93
2022/06/01 05:08:25;;;;;;;29.67;26.75;;;12.00;99.90;;;;;;4850033;29;20052;-92
2022/06/01 05:10:51;;;;;;;28.92;25.92;;;11.50;99.90;;;;;;4851050;29;20511;-94
2022/06/01 05:13:18;;;;;;;29.10;26.10;;;11.50;99.90;;;;;;4849642;29;20084;-92
2022/06/01 05:15:54;;;;;;;28.35;25.45;;;12.00;99.90;;;;;;4850273;29;20115;-93
2022/06/01 05:18:22;;;;;;;28.58;25.77;;;12.20;99.90;;;;;;4850809;29;20209;-94
2022/06/01 05:20:58;;;;;;;27.88;25.05;;;12.20;99.90;;;;;;4851077;29;20052;-93
2022/06/01 05:23:48;;;;;;;28.23;25.47;;;12.10;99.90;;;;;;4868866;29;20048;-94
2022/06/01 05:26:16;;;;;;;26.55;24.00;;;12.10;99.90;;;;;;4869381;29;20063;-92
2022/06/01 05:28:47;;;;;;;25.98;23.35;;;12.00;99.90;;;;;;4865473;29;20139;-94
2022/06/01 05:31:17;;;;;;;26.15;23.60;;;12.90;99.90;;;;;;4849643;29;20056;-93
2022/06/01 05:33:46;;;;;;;26.83;24.17;;;10.50;99.90;;;;;;4865290;29;20048;-93
2022/06/01 05:36:15;;;;;;;25.38;22.77;;;11.80;99.90;;;;;;4849599;29;20063;-92
2022/06/01 05:38:51;;;;;;;25.40;22.92;;;11.80;99.90;;;;;;4851943;29;20052;-94
2022/06/01 05:45:06;;;;;;;;;;;12.20;99.90;;;;;;4849951;29;20076;-90
2022/06/01 05:47:33;;;;;;;25.65;22.55;;;11.80;99.90;;;;;;4894250;29;19951;-88
2022/06/01 05:49:59;;;;;;;23.88;21.48;;;11.70;99.90;;;;;;4881838;29;20052;-88
2022/06/01 05:52:25;;;;;;;23.90;21.50;;;11.90;99.90;;;;;;4896688;29;20416;-86
2022/06/01 05:54:51;;;;;;;23.02;20.75;;;11.80;99.90;;;;;;4881339;29;20048;-88
2022/06/01 05:57:19;;;;;;;22.80;20.60;;;11.80;99.90;;;;;;4881314;29;20096;-89
2022/06/01 05:59:45;;;;;;;23.63;21.23;;;12.00;99.90;;;;;;4897546;29;20048;-87
2022/06/01 06:02:13;;;;;;;25.50;22.90;;;11.90;99.90;;;;;;4866080;29;20763;-88
2022/06/01 06:04:39;;;;;;;24.75;21.55;;;11.80;99.90;;;;;;4865440;29;20048;-89
2022/06/01 06:07:07;;;;;;;27.08;24.27;;;11.80;99.90;;;;;;4860844;29;20047;-89
2022/06/01 06:09:35;;;;;;;24.73;22.17;;;12.00;99.90;;;;;;4880703;29;20599;-91
2022/06/01 06:12:01;;;;;;;24.75;22.17;;;12.00;99.90;;;;;;4866979;29;20064;-91
2022/06/01 06:14:34;;;;;;;26.40;23.60;;;12.00;99.90;;;;;;4882179;29;20055;-92
2022/06/01 06:17:05;;;;;;;23.57;21.13;;;12.20;99.90;;;;;;4884559;29;20150;-94
2022/06/01 06:19:39;;;;;;;22.15;19.98;;;12.00;99.90;;;;;;4867776;29;20052;-94
2022/06/01 06:22:10;;;;;;;21.42;19.45;;;12.00;99.90;;;;;;4868940;29;20044;-92
2022/06/01 06:24:44;;;;;;;;;;;12.10;99.90;;;;;;4868501;29;20059;-88
2022/06/01 06:27:09;;;;;;;20.38;18.27;;;12.10;99.90;;;;;;4893959;29;19923;-89
2022/06/01 06:29:35;;;;;;;19.85;17.95;;;12.20;99.90;;;;;;4880781;29;20051;-91
2022/06/01 06:32:01;;;;;;;19.63;17.63;;;12.30;99.90;;;;;;4868381;29;20500;-92
2022/06/01 06:34:26;;;;;;;18.33;16.50;;;12.70;99.90;;;;;;4890160;29;20040;-90
2022/06/01 06:37:10;;;;;;;17.25;15.50;;;13.30;99.90;;;;;;4873746;29;20202;-89
2022/06/01 06:39:38;;;;;;;17.90;16.25;;;12.50;99.90;;;;;;4871916;29;20054;-90
2022/06/01 06:42:04;;;;;;;17.33;15.63;;;13.40;99.90;;;;;;4868795;29;20052;-89
2022/06/01 06:44:33;;;;;;;17.30;15.70;;;13.20;99.90;;;;;;4869473;29;20064;-90
2022/06/01 06:46:59;;;;;;;16.98;15.38;;;13.30;99.90;;;;;;4870826;29;20056;-89
2022/06/01 06:49:25;;;;;;;18.33;16.40;;;13.30;99.90;;;;;;4870089;29;20063;-87
2022/06/01 06:51:50;;;;;;;16.80;15.10;;;13.30;99.90;;;;;;4885753;29;20505;-90
2022/06/01 06:54:18;;;;;;;16.33;14.82;;;13.10;99.90;;;;;;4886625;29;20054;-91
2022/06/01 06:56:46;;;;;;;18.13;16.45;;;13.80;99.90;;;;;;4895316;29;20106;-90
2022/06/01 06:59:12;;;;;;;16.50;15.02;;;13.00;99.90;;;;;;4886680;29;20043;-91
2022/06/01 07:01:38;;;;;;;17.02;15.35;;;13.00;99.90;;;;;;4870228;29;20535;-92
2022/06/01 07:04:06;;;;;;;18.27;16.58;;;13.10;99.90;;;;;;4870328;29;20048;-90
2022/06/01 07:06:32;;;;;;;17.45;15.82;;;13.00;99.90;;;;;;4870552;29;20591;-90
2022/06/01 07:09:00;;;;;;;17.45;15.70;;;12.20;99.90;;;;;;4885793;29;20095;-90
2022/06/01 07:11:28;;;;;;;17.77;16.17;;;13.10;99.90;;;;;;4901284;29;20044;-90
2022/06/01 07:13:59;;;;;;;18.35;16.65;;;13.20;99.90;;;;;;4870021;29;20063;-91
2022/06/01 07:16:29;;;;;;;19.08;17.38;;;13.20;99.90;;;;;;4885988;29;20446;-91
2022/06/01 07:18:55;;;;;;;21.33;19.25;;;13.30;99.90;;;;;;4870004;29;20477;-89
2022/06/01 07:21:23;;;;;;;21.05;18.83;;;13.40;99.90;;;;;;4869710;29;20111;-91
2022/06/01 07:23:49;;;;;;;22.52;20.33;;;13.50;99.90;;;;;;4885615;29;20092;-90
2022/06/01 07:26:18;;;;;;;22.42;20.25;;;13.40;99.90;;;;;;4885077;29;20090;-91
2022/06/01 07:28:46;;;;;;;21.63;19.60;;;13.60;99.90;;;;;;4900185;29;20142;-89
2022/06/01 07:31:18;;;;;;;22.58;20.48;;;13.60;99.90;;;;;;4885251;29;20496;-90
2022/06/01 07:33:44;;;;;;;23.45;21.15;;;13.80;99.90;;;;;;4886328;29;20127;-91
2022/06/01 07:36:11;;;;;;;21.50;19.45;;;13.90;99.90;;;;;;4885049;29;20060;-91
2022/06/01 07:44:15;;;;;;;19.42;17.52;;;14.80;99.90;;;;;;4914638;29;20149;-91
2022/06/01 07:46:41;;;;;;;15.55;14.05;;;15.20;99.90;;;;;;4883579;29;20610;-89
2022/06/01 07:49:07;;;;;;;16.95;15.32;;;15.20;99.90;;;;;;4889832;29;20056;-91
2022/06/01 07:51:34;;;;;;;16.80;15.20;;;15.20;99.90;;;;;;4865865;29;20048;-91
2022/06/01 07:54:00;;;;;;;17.33;15.63;;;15.60;99.90;;;;;;4850777;29;20536;-91
2022/06/01 07:56:29;;;;;;;17.55;15.95;;;15.90;99.90;;;;;;4865531;29;20095;-91
2022/06/01 07:58:54;;;;;;;16.30;14.63;;;15.30;99.90;;;;;;4851321;29;20531;-93
2022/06/01 08:01:27;;;;;;;18.27;16.48;;;15.40;99.90;;;;;;4881411;29;20091;-89
2022/06/01 08:03:56;;;;;;;18.50;16.73;;;14.80;99.90;;;;;;4866699;29;20057;-91
2022/06/01 08:06:22;;;;;;;21.27;18.80;;;14.60;99.90;;;;;;4866262;29;20049;-91
2022/06/01 08:08:53;;;;;;;21.50;19.20;;;14.20;99.90;;;;;;4850173;29;20067;-92
2022/06/01 08:11:21;;;;;;;23.55;21.17;;;14.00;99.90;;;;;;4866511;29;20049;-93
2022/06/01 08:14:05;;;;;;;17.58;15.77;;;13.80;99.90;;;;;;4870777;29;20383;-92
2022/06/01 08:16:38;;;;;;;15.00;13.50;;;13.50;99.90;;;;;;4865577;29;20045;-90
2022/06/01 08:19:10;;;;;;;10.27;9.27;;;13.40;99.90;;;;;;4866260;29;20052;-91
2022/06/01 08:21:40;;;;;;;11.35;10.25;;;13.20;99.90;;;;;;4866560;29;20093;-90
2022/06/01 08:24:06;;;;;;;13.00;11.77;;;13.30;99.90;;;;;;4866022;29;20135;-89
2022/06/01 08:26:33;;;;;;;15.18;13.60;;;12.80;99.90;;;;;;4865279;29;20074;-89
2022/06/01 08:28:59;;;;;;;11.68;10.25;;;12.80;99.90;;;;;;4865778;29;20108;-90
2022/06/01 08:31:29;;;;;;;9.48;6.95;;;12.70;99.90;;;;;;4865462;29;20143;-90
2022/06/01 08:33:58;;;;;;;8.13;7.00;;;12.50;99.90;;;;;;4866461;29;20134;-90
2022/06/01 08:36:26;;;;;;;5.60;4.97;;;12.50;99.90;;;;;;4865355;29;20059;-91
2022/06/01 08:38:52;;;;;;;5.78;5.28;;;12.40;99.90;;;;;;4849321;29;20187;-90
2022/06/01 08:41:19;;;;;;;3.63;3.33;;;12.40;99.90;;;;;;4865092;29;20051;-90
2022/06/01 08:43:50;;;;;;;3.78;3.47;;;12.00;99.90;;;;;;4864892;29;20057;-91
2022/06/01 08:46:19;;;;;;;3.53;3.22;;;12.10;99.90;;;;;;4880522;29;20060;-91
2022/06/01 08:48:46;;;;;;;3.55;3.00;;;12.10;99.90;;;;;;4864813;29;20515;-89
2022/06/01 08:51:14;;;;;;;2.38;2.17;;;11.90;99.90;;;;;;4880567;29;20049;-89
2022/06/01 08:53:40;;;;;;;2.75;2.55;;;11.90;99.90;;;;;;4849608;29;20063;-90
2022/06/01 08:56:15;;;;;;;2.67;2.47;;;11.90;99.90;;;;;;4864745;29;20056;-91
2022/06/01 08:58:45;;;;;;;3.97;2.45;;;12.00;99.90;;;;;;4850202;29;20199;-90
2022/06/01 09:01:28;;;;;;;4.95;2.70;;;12.00;99.90;;;;;;4900087;29;20052;-92
2022/06/01 09:04:34;;;;;;;3.20;2.90;;;10.90;99.90;;;;;;4890631;29;20485;-90
2022/06/01 09:07:39;;;;;;;7.50;3.17;;;12.30;99.90;;;;;;4883002;29;20056;-90
2022/06/01 09:10:20;;;;;;;5.63;2.40;;;12.70;99.90;;;;;;4880050;29;20108;-89
2022/06/01 09:12:46;;;;;;;4.60;2.03;;;13.60;99.90;;;;;;4894987;29;20056;-89
2022/06/01 09:15:14;;;;;;;3.40;2.08;;;14.40;99.90;;;;;;4848511;29;20045;-91
2022/06/01 09:17:43;;;;;;;2.88;1.73;;;15.40;99.90;;;;;;4864338;29;20048;-91
2022/06/01 09:22:53;;;;;;;1.90;1.80;;;16.30;99.90;;;;;;4868847;29;20064;-90
2022/06/01 09:25:36;;;;;;;2.60;2.03;;;17.10;99.90;;;;;;4864428;29;20057;-90
2022/06/01 09:28:18;;;;;;;3.10;2.42;;;17.80;99.90;;;;;;4866938;29;20063;-92
2022/06/01 09:30:45;;;;;;;2.17;1.98;;;18.40;99.90;;;;;;4865907;29;20077;-89
2022/06/01 09:33:15;;;;;;;2.13;2.00;;;18.20;99.90;;;;;;4848884;29;20064;-90
2022/06/01 09:35:43;;;;;;;2.70;2.50;;;17.60;99.90;;;;;;4879221;29;20493;-91
2022/06/01 09:38:16;;;;;;;1.92;1.67;;;17.30;99.90;;;;;;4864345;29;20135;-92
2022/06/01 09:40:45;;;;;;;2.80;2.60;;;17.00;99.90;;;;;;4864496;29;20090;-91
2022/06/01 09:43:24;;;;;;;3.75;2.67;;;16.80;99.90;;;;;;4852418;29;20060;-92
2022/06/01 09:45:53;;;;;;;2.88;2.65;;;16.50;99.90;;;;;;4882803;29;20056;-91
2022/06/01 09:48:29;;;;;;;3.78;2.80;;;16.30;99.90;;;;;;4882101;29;20414;-90
2022/06/01 09:51:11;;;;;;;3.13;2.83;;;16.30;99.90;;;;;;4882282;29;20052;-91
2022/06/01 09:54:14;;;;;;;3.47;3.15;;;16.00;99.90;;;;;;4898671;29;20048;-91
2022/06/01 09:56:45;;;;;;;8.13;6.65;;;16.30;99.90;;;;;;4869397;29;20060;-91
2022/06/01 10:08:08;;;;;;;6.00;5.45;;;15.80;99.90;;;;;;4887029;29;20087;-90
2022/06/01 10:10:34;;;;;;;5.53;5.07;;;16.10;99.90;;;;;;4885718;29;20052;-90
2022/06/01 10:13:00;;;;;;;5.47;5.00;;;16.10;99.90;;;;;;4904767;29;20488;-89
2022/06/01 10:15:40;;;;;;;4.78;4.38;;;15.90;99.90;;;;;;4873885;29;20062;-89
2022/06/01 10:18:22;;;;;;;4.32;4.00;;;16.40;99.90;;;;;;4904927;29;20131;-90
2022/06/01 10:20:55;;;;;;;4.22;3.85;;;16.00;99.90;;;;;;4904994;29;20061;-90
2022/06/01 10:23:42;;;;;;;5.43;4.00;;;17.10;99.90;;;;;;4874901;29;20059;-91
2022/06/01 10:26:29;;;;;;;4.50;4.10;;;18.10;99.90;;;;;;4904912;29;20051;-91
2022/06/01 10:29:01;;;;;;;4.60;3.88;;;18.40;99.90;;;;;;4873985;29;20058;-92
2022/06/01 10:31:57;;;;;;;4.03;3.60;;;18.50;99.90;;;;;;4873763;29;20066;-93
2022/06/01 10:34:45;;;;;;;4.53;4.13;;;18.70;99.90;;;;;;4891590;29;20052;-92
2022/06/01 10:37:29;;;;;;;4.10;3.58;;;19.00;99.90;;;;;;4905012;29;20207;-92
2022/06/01 10:40:01;;;;;;;3.70;3.38;;;19.10;99.90;;;;;;4903806;29;20051;-89
2022/06/01 10:45:23;;;;;;;3.60;3.30;;;19.40;99.90;;;;;;4894702;29;20051;-92
2022/06/01 10:48:14;;;;;;;4.45;4.13;;;19.00;99.90;;;;;;4873432;29;20051;-95
2022/06/01 10:51:10;;;;;;;5.40;4.75;;;19.70;99.90;;;;;;4904940;29;20098;-94
2022/06/01 10:53:59;;;;;;;5.10;4.68;;;20.20;99.90;;;;;;4898059;29;20055;-90
2022/06/01 10:56:28;;;;;;;5.35;4.85;;;19.70;99.90;;;;;;4891689;29;20058;-92
2022/06/01 10:59:01;;;;;;;4.65;4.25;;;19.60;99.90;;;;;;4874247;29;20047;-92
2022/06/01 11:01:54;;;;;;;4.78;4.35;;;19.60;99.90;;;;;;4905694;29;20062;-91
2022/06/01 11:05:00;;;;;;;4.63;4.22;;;19.00;99.90;;;;;;4906764;29;20071;-91
2022/06/01 11:07:58;;;;;;;4.35;3.92;;;18.40;99.90;;;;;;4925461;29;20099;-93
2022/06/01 11:10:53;;;;;;;3.92;3.45;;;17.60;99.90;;;;;;4862259;29;20120;-93
2022/06/01 11:13:41;;;;;;;4.28;3.97;;;18.00;99.90;;;;;;4907109;29;20052;-94
2022/06/01 11:16:31;;;;;;;4.20;3.80;;;17.40;99.90;;;;;;4889428;29;20058;-92
2022/06/01 11:19:17;;;;;;;4.30;4.00;;;17.00;99.90;;;;;;4904218;29;20457;-91
2022/06/01 11:21:47;;;;;;;4.28;3.83;;;16.70;99.90;;;;;;4890699;29;20530;-91
2022/06/01 11:24:18;;;;;;;5.57;3.75;;;16.10;99.90;;;;;;4903747;29;20058;-91
2022/06/01 11:27:02;;;;;;;7.43;4.22;;;15.70;99.90;;;;;;4919611;29;20054;-88
2022/06/01 11:29:34;;;;;;;;;;;14.80;99.90;;;;;;4919591;29;20079;-87
2022/06/01 11:32:02;;;;;;;7.53;4.38;;;13.90;99.90;;;;;;4918587;29;19929;-87
2022/06/01 11:34:51;;;;;;;12.40;6.07;;;13.00;99.90;;;;;;4872672;29;20459;-87
2022/06/01 11:37:35;;;;;;;7.70;4.55;;;12.10;99.90;;;;;;4919296;29;20146;-88
2022/06/01 11:40:24;;;;;;;6.35;3.90;;;12.00;99.90;;;;;;4902973;29;20496;-87
2022/06/01 11:43:04;;;;;;;5.47;3.60;;;11.80;99.90;;;;;;4888792;29;20126;-88
2022/06/01 11:45:35;;;;;;;8.40;4.47;;;11.80;99.90;;;;;;4889568;29;20094;-87
2022/06/01 11:48:06;;;;;;;6.60;4.38;;;11.80;99.90;;;;;;4903447;29;20123;-88
2022/06/01 11:51:06;;;;;;;6.45;4.22;;;11.70;99.90;;;;;;4919403;29;20126;-87
2022/06/01 11:53:41;;;;;;;6.68;3.53;;;11.80;99.90;;;;;;4892528;29;20106;-89
2022/06/01 11:56:30;;;;;;;5.22;2.38;;;11.90;99.90;;;;;;4903852;29;20051;-88
2022/06/01 11:59:24;;;;;;;3.78;2.53;;;12.00;99.90;;;;;;4918580;29;20122;-87
2022/06/01 12:02:02;;;;;;;3.35;2.00;;;12.20;99.90;;;;;;4896907;29;20199;-86
2022/06/01 12:04:32;;;;;;;7.03;2.10;;;13.00;99.90;;;;;;4903082;29;20519;-87
2022/06/01 12:07:10;;;;;;;2.90;1.60;;;13.00;99.90;;;;;;4918856;29;20404;-86
2022/06/01 12:09:47;;;;;;;1.63;1.52;;;13.60;99.90;;;;;;4887401;29;20494;-86
2022/06/01 12:12:34;;;;;;;1.38;1.27;;;14.20;99.90;;;;;;4887865;29;20044;-86
2022/06/01 12:15:18;;;;;;;1.92;1.20;;;14.80;99.90;;;;;;4902514;29;20066;-89
2022/06/01 12:18:12;;;;;;;1.17;1.08;;;15.50;99.90;;;;;;4888575;29;20084;-87
2022/06/01 12:20:38;;;;;;;1.17;0.77;;;16.00;99.90;;;;;;4885613;29;20124;-87
2022/06/01 12:28:52;;;;;;;2.55;0.70;;;16.00;99.90;;;;;;4899668;29;20429;-87
2022/06/01 12:31:22;;;;;;;1.42;0.80;;;15.80;99.90;;;;;;4867750;29;20059;-87
2022/06/01 12:34:06;;;;;;;0.80;0.80;;;16.00;99.90;;;;;;4883824;29;20526;-87
2022/06/01 12:36:50;;;;;;;;;;;16.20;99.90;;;;;;4884386;29;20045;-87
2022/06/01 12:39:33;;;;;;;1.33;0.93;;;16.20;99.90;;;;;;4898859;29;20038;-87
2022/06/01 12:42:33;;;;;;;1.15;1.00;;;16.70;99.90;;;;;;4899417;29;20556;-91
2022/06/01 12:45:00;;;;;;;0.60;0.60;;;17.10;99.90;;;;;;4880128;29;20063;-88
2022/06/01 12:47:29;;;;;;;1.65;0.90;;;16.80;99.90;;;;;;4869286;29;20496;-87
2022/06/01 12:49:54;;;;;;;1.58;1.00;;;16.80;99.90;;;;;;4869746;29;20116;-87
2022/06/01 12:52:23;;;;;;;1.17;0.90;;;16.60;99.90;;;;;;4853287;29;20047;-88
2022/06/01 12:54:55;;;;;;;1.30;1.00;;;16.40;99.90;;;;;;4868289;29;20052;-90
2022/06/01 12:57:31;;;;;;;1.48;1.38;;;16.30;99.90;;;;;;4852690;29;20060;-88
2022/06/01 13:00:06;;;;;;;2.30;2.20;;;16.10;99.90;;;;;;4868091;29;20052;-89
2022/06/01 13:02:41;;;;;;;2.25;2.05;;;16.20;99.90;;;;;;4884635;29;20048;-89
2022/06/01 13:05:09;;;;;;;3.03;2.83;;;16.30;99.90;;;;;;4852958;29;20071;-88
2022/06/01 13:07:37;;;;;;;3.60;3.30;;;16.80;99.90;;;;;;4868097;29;20056;-91
2022/06/01 13:10:14;;;;;;;5.35;4.05;;;17.20;99.90;;;;;;4867911;29;20523;-91
2022/06/01 13:12:39;;;;;;;4.60;4.20;;;17.10;99.90;;;;;;4869604;29;20059;-90
2022/06/01 13:15:22;;;;;;;3.47;3.13;;;16.60;99.90;;;;;;4853531;29;20052;-94
2022/06/01 13:17:56;;;;;;;1.30;1.20;;;16.10;99.90;;;;;;4894462;29;20076;-89
2022/06/01 13:20:39;;;;;;;1.15;1.00;;;15.30;99.90;;;;;;4857363;29;20440;-89
2022/06/01 13:23:17;;;;;;;0.70;0.70;;;14.90;99.90;;;;;;4868571;29;20147;-91
2022/06/01 13:25:43;;;;;;;0.75;0.75;;;14.60;99.90;;;;;;4854304;29;20454;-91
2022/06/01 13:28:09;;;;;;;1.85;0.90;;;14.30;99.90;;;;;;4851936;29;20111;-88
2022/06/01 13:30:35;;;;;;;1.33;0.80;;;14.30;99.90;;;;;;4852605;29;20111;-90
2022/06/01 13:33:01;;;;;;;0.90;0.90;;;14.30;99.90;;;;;;4852145;29;20048;-89
2022/06/01 13:35:35;;;;;;;1.17;0.88;;;14.20;99.90;;;;;;4867080;29;20442;-88
2022/06/01 13:38:01;;;;;;;;;;;14.30;99.90;;;;;;4852452;29;20064;-90
2022/06/01 13:40:32;;;;;;;1.80;1.20;;;14.40;99.90;;;;;;4867561;29;19930;-88
2022/06/01 13:43:14;;;;;;;6.57;1.90;;;14.30;99.90;;;;;;4854157;29;20064;-90
2022/06/01 13:45:43;;;;;;;2.05;1.70;;;14.30;99.90;;;;;;4882921;29;20064;-87
2022/06/01 13:48:18;;;;;;;1.83;1.17;;;14.20;99.90;;;;;;4913431;29;20055;-87
2022/06/01 13:50:46;;;;;;;1.27;1.17;;;14.30;99.90;;;;;;4867471;29;20560;-88